Time;durP1;ratioP1;P1;durP2;ratioP2;P2;SDS_P1;SDS_P2;PMS_P1;PMS_P2;Temp;Humidity;BMP_temperature;BMP_pressure;BME280_temperature;BME280_humidity;BME280_pressure;Samples;Min_cycle;Max_cycle;Signal;HPM_P1;HPM_P2
2021/07/24 00:01:39;;;;;;;11.23;9.20;;;;;;;18.03;62.21;100199.00;153942;1101;103131;-76
2021/07/24 00:04:44;;;;;;;12.27;9.03;;;;;;;18.01;62.16;100201.08;153983;1095;103196;-76
2021/07/24 00:07:49;;;;;;;11.65;9.78;;;;;;;17.98;62.30;100192.55;153955;1096;103096;-76
2021/07/24 00:10:54;;;;;;;12.10;9.37;;;;;;;17.96;62.47;100195.44;153995;1096;103230;-76
2021/07/24 00:13:59;;;;;;;12.10;9.48;;;;;;;17.92;62.33;100201.42;153981;1101;103187;-75
2021/07/24 00:17:05;;;;;;;13.23;9.58;;;;;;;17.91;62.46;100199.78;153964;1101;103186;-76
2021/07/24 00:20:12;;;;;;;12.33;9.33;;;;;;;17.90;62.60;100198.95;153932;1096;103194;-76
2021/07/24 00:23:17;;;;;;;12.30;8.57;;;;;;;17.92;62.78;100202.28;153967;1101;103134;-76
2021/07/24 00:26:22;;;;;;;9.98;7.98;;;;;;;17.96;62.63;100198.14;153932;1096;103125;-76
2021/07/24 00:29:27;;;;;;;10.10;8.03;;;;;;;18.00;62.47;100198.57;153965;1096;103381;-76
2021/07/24 00:32:32;;;;;;;12.50;8.65;;;;;;;18.04;62.57;100197.13;153982;1096;103130;-76
2021/07/24 00:35:38;;;;;;;11.20;9.05;;;;;;;18.10;62.78;100199.00;154091;1101;103190;-75
2021/07/24 00:38:43;;;;;;;11.30;9.17;;;;;;;18.13;62.65;100195.05;153974;1094;103193;-75
2021/07/24 00:41:53;;;;;;;11.17;9.10;;;;;;;18.18;62.74;100195.28;153993;1096;103198;-78
2021/07/24 00:45:02;;;;;;;11.40;9.33;;;;;;;18.20;62.65;100201.31;154027;1101;103219;-78
2021/07/24 00:48:09;;;;;;;10.83;8.63;;;;;;;18.19;62.75;100196.96;154120;1096;103196;-73
2021/07/24 00:51:34;;;;;;;11.80;9.20;;;;;;;18.18;62.77;100197.98;154008;1096;103135;-73
2021/07/24 00:54:39;;;;;;;12.77;9.70;;;;;;;18.17;62.84;100196.34;154006;1101;103200;-75
2021/07/24 00:57:45;;;;;;;11.83;9.58;;;;;;;18.16;62.95;100191.95;153958;1101;103139;-75
2021/07/24 01:00:50;;;;;;;11.20;9.60;;;;;;;18.15;62.95;100196.53;154012;1101;103411;-75
2021/07/24 01:03:56;;;;;;;11.10;9.20;;;;;;;18.13;62.98;100193.20;154072;1095;103147;-75
2021/07/24 01:07:06;;;;;;;11.27;8.50;;;;;;;18.14;63.14;100186.75;153981;1101;103218;-76
2021/07/24 01:10:13;;;;;;;10.50;8.23;;;;;;;18.15;63.07;100185.73;154024;1096;103122;-75
2021/07/24 01:13:19;;;;;;;10.93;8.35;;;;;;;18.18;63.16;100185.30;154026;1101;103215;-76
2021/07/24 01:16:24;;;;;;;10.38;8.60;;;;;;;18.21;63.20;100184.08;153987;1096;103292;-76
2021/07/24 01:19:31;;;;;;;11.20;9.20;;;;;;;18.23;63.03;100182.01;154027;1093;103512;-76
2021/07/24 01:22:36;;;;;;;11.97;9.07;;;;;;;18.23;63.07;100187.41;154195;1101;103189;-76
2021/07/24 01:25:46;;;;;;;11.78;9.43;;;;;;;18.21;63.16;100179.51;154123;1101;103131;-76
2021/07/24 01:28:52;;;;;;;10.67;9.07;;;;;;;18.21;63.29;100178.68;154002;1101;103190;-77
2021/07/24 01:31:57;;;;;;;12.80;9.75;;;;;;;18.19;63.16;100180.76;153921;1093;103272;-76
2021/07/24 01:35:04;;;;;;;11.15;8.88;;;;;;;18.18;63.42;100181.78;153957;1093;103134;-76
2021/07/24 01:38:09;;;;;;;12.38;9.48;;;;;;;18.18;63.64;100181.78;153952;1093;103104;-76
2021/07/24 01:41:17;;;;;;;13.13;9.48;;;;;;;18.20;63.26;100171.60;153965;1101;103219;-77
2021/07/24 01:44:23;;;;;;;13.48;9.03;;;;;;;18.18;63.31;100184.48;154037;1101;103144;-75
2021/07/24 01:47:29;;;;;;;11.33;8.03;;;;;;;18.12;63.55;100178.03;153945;1093;103327;-77
2021/07/24 01:54:03;;;;;;;10.20;8.37;;;;;;;18.28;63.67;100171.41;153959;1101;103224;-76
2021/07/24 01:57:10;;;;;;;10.10;8.27;;;;;;;18.31;63.56;100173.70;153930;1093;103563;-75
2021/07/24 02:00:22;;;;;;;10.48;8.83;;;;;;;18.31;63.63;100179.11;153965;1093;103179;-76
2021/07/24 02:03:38;;;;;;;10.93;8.77;;;;;;;18.31;63.58;100178.28;153939;1094;103285;-76
2021/07/24 02:07:02;;;;;;;10.67;8.93;;;;;;;18.29;63.70;100178.48;153978;1101;103572;-75
2021/07/24 02:10:23;;;;;;;11.68;9.28;;;;;;;18.27;63.44;100168.93;154003;1094;103196;-75
2021/07/24 02:13:34;;;;;;;11.78;8.93;;;;;;;18.23;63.60;100169.33;153926;1101;103174;-75
2021/07/24 02:16:41;;;;;;;12.13;8.87;;;;;;;18.33;65.45;100170.80;153941;1101;103220;-75
2021/07/24 02:19:47;;;;;;;12.57;8.40;;;;;;;18.75;65.63;100174.97;153951;1101;103196;-76
2021/07/24 02:22:53;;;;;;;9.70;7.73;;;;;;;19.11;64.68;100170.16;153973;1093;103119;-76
2021/07/24 02:25:58;;;;;;;11.33;8.17;;;;;;;19.20;63.40;100168.90;153925;1094;103195;-75
2021/07/24 02:29:04;;;;;;;10.03;8.75;;;;;;;19.02;63.96;100164.16;153924;1101;103190;-75
2021/07/24 02:32:09;;;;;;;10.50;8.90;;;;;;;19.28;64.85;100157.84;153950;1093;103195;-76
2021/07/24 02:35:16;;;;;;;12.20;9.00;;;;;;;19.59;64.46;100158.98;153944;1093;103291;-75
2021/07/24 02:38:41;;;;;;;11.10;8.95;;;;;;;19.74;63.89;100159.56;154025;1101;103093;-75
2021/07/24 02:41:46;;;;;;;11.20;9.10;;;;;;;19.80;63.39;100144.34;153910;1101;103107;-76
2021/07/24 02:44:51;;;;;;;10.20;8.97;;;;;;;19.83;63.50;100154.75;153947;1101;103224;-77
2021/07/24 02:47:57;;;;;;;10.33;9.03;;;;;;;19.78;63.76;100151.84;153918;1093;103198;-76
2021/07/24 02:51:03;;;;;;;10.30;8.88;;;;;;;19.88;63.74;100157.64;153953;1093;103139;-75
2021/07/24 02:54:08;;;;;;;9.90;7.80;;;;;;;19.99;63.66;100151.52;153988;1094;103126;-78
2021/07/24 02:57:14;;;;;;;9.70;8.37;;;;;;;20.07;62.87;100153.13;153941;1093;103106;-76
2021/07/24 03:00:19;;;;;;;9.37;7.97;;;;;;;19.97;63.25;100159.03;153926;1101;103313;-76
2021/07/24 03:03:25;;;;;;;9.87;8.30;;;;;;;20.06;63.34;100158.80;153979;1093;103147;-77
2021/07/24 03:06:30;;;;;;;11.10;9.00;;;;;;;20.18;62.84;100148.91;153989;1101;103288;-76
2021/07/24 03:09:35;;;;;;;9.10;7.40;;;;;;;20.17;63.09;100155.39;153965;1101;103216;-76
2021/07/24 03:12:39;;;;;;;11.05;8.55;;;;;;;20.24;63.18;100139.08;153928;1101;103124;-76
2021/07/24 03:15:44;;;;;;;11.13;8.68;;;;;;;20.37;63.20;100150.64;153901;1093;103129;-77
2021/07/24 03:18:51;;;;;;;10.30;8.70;;;;;;;20.42;62.76;100151.86;153937;1093;103128;-77
2021/07/24 03:21:56;;;;;;;11.65;9.50;;;;;;;20.17;62.15;100150.80;153969;1101;103197;-76
2021/07/24 03:25:01;;;;;;;10.30;8.67;;;;;;;19.75;62.44;100158.53;154031;1093;103052;-76
2021/07/24 03:28:06;;;;;;;10.70;9.05;;;;;;;19.51;62.89;100151.94;153929;1093;103123;-75
2021/07/24 03:31:11;;;;;;;9.73;8.37;;;;;;;19.56;63.85;100154.02;153971;1093;103125;-76
2021/07/24 03:34:16;;;;;;;10.90;8.03;;;;;;;19.75;63.15;100153.13;153959;1093;103192;-75
2021/07/24 03:37:22;;;;;;;10.55;8.98;;;;;;;19.90;63.15;100155.55;153989;1093;103138;-76
2021/07/24 03:40:27;;;;;;;11.03;8.83;;;;;;;20.04;62.85;100155.48;153996;1101;103142;-75
2021/07/24 03:43:33;;;;;;;9.47;8.27;;;;;;;20.20;63.07;100154.94;153945;1101;103125;-75
2021/07/24 03:46:37;;;;;;;10.20;8.18;;;;;;;20.32;62.95;100152.34;153893;1101;103124;-75
2021/07/24 03:49:42;;;;;;;10.25;8.48;;;;;;;20.49;62.64;100144.52;153933;1101;103119;-75
2021/07/24 03:52:47;;;;;;;9.88;8.60;;;;;;;20.57;62.47;100144.23;153945;1093;103292;-75
2021/07/24 03:55:54;;;;;;;10.10;8.90;;;;;;;20.58;62.28;100149.44;153972;1101;103193;-78
2021/07/24 03:58:59;;;;;;;13.03;9.85;;;;;;;20.48;62.49;100156.42;153955;1093;103126;-77
2021/07/24 04:02:07;;;;;;;14.63;9.30;;;;;;;20.35;62.34;100158.16;153994;1101;103195;-75
2021/07/24 04:05:13;;;;;;;9.35;8.05;;;;;;;20.24;62.96;100156.16;153980;1101;103192;-74
2021/07/24 04:08:18;;;;;;;9.73;7.93;;;;;;;20.49;63.13;100148.05;154005;1101;103186;-75
2021/07/24 04:11:24;;;;;;;10.30;8.63;;;;;;;20.78;62.59;100143.88;153989;1094;103099;-75
2021/07/24 04:14:29;;;;;;;10.30;7.90;;;;;;;21.03;62.25;100145.70;153945;1101;103653;-74
2021/07/24 04:17:35;;;;;;;11.90;9.03;;;;;;;21.26;62.41;100147.75;153921;1093;103133;-73
2021/07/24 04:20:42;;;;;;;10.90;9.05;;;;;;;21.33;62.37;100142.27;153906;1101;103125;-75
2021/07/24 04:23:47;;;;;;;11.98;9.33;;;;;;;21.31;62.38;100149.80;153921;1101;103195;-74
2021/07/24 04:26:52;;;;;;;8.33;7.50;;;;;;;21.39;62.24;100154.92;153964;1101;103212;-74
2021/07/24 04:29:57;;;;;;;10.50;8.27;;;;;;;21.48;62.05;100148.16;153941;1101;103126;-75
2021/07/24 04:33:02;;;;;;;11.08;9.88;;;;;;;21.56;62.29;100153.27;153918;1101;103148;-77
2021/07/24 04:36:07;;;;;;;13.35;10.30;;;;;;;21.56;62.39;100153.27;153963;1094;103102;-76
2021/07/24 04:39:12;;;;;;;15.85;13.20;;;;;;;21.42;62.46;100151.77;153946;1101;103267;-76
2021/07/24 04:42:17;;;;;;;15.63;13.53;;;;;;;21.18;62.84;100148.88;153940;1093;103147;-76
2021/07/24 04:45:22;;;;;;;14.75;12.95;;;;;;;21.26;62.88;100155.89;153929;1101;103204;-78
2021/07/24 04:48:27;;;;;;;13.77;11.57;;;;;;;21.41;62.59;100144.66;153976;1093;103102;-75
2021/07/24 04:51:33;;;;;;;12.30;8.93;;;;;;;21.65;62.47;100150.23;153954;1101;103585;-77
2021/07/24 04:54:38;;;;;;;11.13;9.93;;;;;;;21.85;62.25;100150.81;153899;1101;103195;-77
2021/07/24 04:57:44;;;;;;;19.18;13.33;;;;;;;22.01;62.33;100149.33;153956;1101;103192;-77
2021/07/24 05:00:50;;;;;;;18.83;15.40;;;;;;;22.03;62.30;100157.26;153979;1093;103258;-75
2021/07/24 05:03:56;;;;;;;19.60;15.67;;;;;;;21.99;62.42;100156.06;153962;1101;103186;-75
2021/07/24 05:07:01;;;;;;;21.68;17.30;;;;;;;21.77;62.41;100153.86;153932;1101;103136;-74
2021/07/24 05:10:09;;;;;;;20.40;16.80;;;;;;;21.68;62.81;100161.48;153951;1101;103365;-75
2021/07/24 05:13:14;;;;;;;15.40;12.50;;;;;;;21.80;62.61;100163.42;153995;1101;103144;-75
2021/07/24 05:16:18;;;;;;;16.63;13.65;;;;;;;22.01;62.52;100154.77;153940;1101;103198;-74
2021/07/24 05:19:23;;;;;;;20.17;16.97;;;;;;;22.19;62.58;100162.05;153904;1101;103132;-73
2021/07/24 05:22:28;;;;;;;18.95;15.85;;;;;;;22.38;62.33;100165.53;153950;1101;103198;-76
2021/07/24 05:25:34;;;;;;;13.60;10.28;;;;;;;22.58;61.96;100161.69;153919;1101;103219;-76
2021/07/24 05:28:39;;;;;;;13.63;11.60;;;;;;;22.73;61.86;100164.78;153992;1101;103199;-76
2021/07/24 05:31:46;;;;;;;14.23;11.03;;;;;;;22.87;61.79;100166.19;153972;1093;103158;-76
2021/07/24 05:34:51;;;;;;;14.43;11.33;;;;;;;23.10;61.39;100170.00;153934;1101;103140;-76
2021/07/24 05:37:56;;;;;;;12.75;10.53;;;;;;;23.21;61.53;100157.42;153997;1093;103505;-77
2021/07/24 05:41:02;;;;;;;16.93;12.90;;;;;;;23.30;61.48;100162.27;153928;1094;103273;-75
2021/07/24 05:44:10;;;;;;;16.60;13.10;;;;;;;23.38;61.41;100158.34;153955;1094;103105;-74
2021/07/24 05:47:15;;;;;;;14.13;11.63;;;;;;;23.45;60.91;100159.05;153923;1093;103170;-74
2021/07/24 05:50:20;;;;;;;14.93;12.35;;;;;;;23.58;61.23;100151.69;153966;1101;103125;-75
2021/07/24 05:53:25;;;;;;;17.13;12.53;;;;;;;23.63;60.92;100158.03;153924;1101;103109;-76
2021/07/24 05:56:30;;;;;;;17.50;14.90;;;;;;;23.63;60.96;100154.49;153956;1093;103224;-76
2021/07/24 05:59:36;;;;;;;21.93;14.75;;;;;;;23.66;61.11;100154.02;154039;1101;103187;-76
2021/07/24 06:02:41;;;;;;;14.23;11.60;;;;;;;23.74;60.70;100150.91;153893;1094;103118;-75
2021/07/24 06:05:46;;;;;;;17.33;14.50;;;;;;;23.78;61.11;100149.38;153943;1101;103128;-76
2021/07/24 06:08:51;;;;;;;16.93;14.70;;;;;;;23.85;61.20;100150.06;153965;1101;103170;-76
2021/07/24 06:11:56;;;;;;;17.93;14.58;;;;;;;23.86;60.71;100148.98;154199;1101;103253;-75
2021/07/24 06:15:01;;;;;;;18.85;15.50;;;;;;;23.86;60.91;100151.70;154071;1094;103127;-75
2021/07/24 06:18:07;;;;;;;18.20;15.60;;;;;;;23.86;60.54;100148.98;153963;1095;103522;-73
2021/07/24 06:21:17;;;;;;;29.25;18.98;;;;;;;23.85;60.77;100147.34;153965;1101;103487;-72
2021/07/24 06:24:22;;;;;;;19.35;15.98;;;;;;;23.87;61.05;100153.38;154043;1096;103099;-72
2021/07/24 06:27:27;;;;;;;18.00;15.33;;;;;;;23.91;60.68;100140.09;153916;1101;103486;-72
2021/07/24 06:30:31;;;;;;;18.68;15.45;;;;;;;23.92;60.96;100141.73;153960;1096;103704;-74
2021/07/24 06:33:37;;;;;;;19.25;15.73;;;;;;;23.92;60.63;100147.18;153966;1101;103238;-73
2021/07/24 06:36:42;;;;;;;20.10;15.70;;;;;;;23.94;61.00;100145.03;154080;1101;103144;-74
2021/07/24 06:39:47;;;;;;;20.18;16.58;;;;;;;24.00;60.88;100145.95;154011;1096;103129;-74
2021/07/24 06:42:52;;;;;;;17.48;14.95;;;;;;;24.01;61.02;100151.17;153950;1101;103292;-74
2021/07/24 06:45:57;;;;;;;17.00;13.40;;;;;;;24.09;60.48;100153.49;154004;1101;103262;-74
2021/07/24 06:49:02;;;;;;;15.83;13.07;;;;;;;24.25;60.81;100153.77;154066;1101;103224;-74
2021/07/24 06:52:07;;;;;;;18.10;13.43;;;;;;;24.43;60.83;100152.73;154032;1096;103600;-75
2021/07/24 06:55:12;;;;;;;15.93;13.25;;;;;;;24.59;60.42;100148.37;154092;1101;103584;-74
2021/07/24 06:58:17;;;;;;;16.55;13.48;;;;;;;24.72;60.45;100142.58;154077;1095;103133;-74
2021/07/24 07:01:22;;;;;;;15.58;12.55;;;;;;;24.82;60.42;100150.09;154066;1101;103304;-75
2021/07/24 07:04:27;;;;;;;15.48;12.45;;;;;;;24.93;59.82;100146.44;153976;1096;103127;-75
2021/07/24 07:07:32;;;;;;;18.23;12.97;;;;;;;24.97;60.02;100153.04;154410;1101;103103;-75
2021/07/24 07:10:38;;;;;;;15.40;12.60;;;;;;;25.03;59.77;100157.49;155081;1101;103126;-75
2021/07/24 07:13:43;;;;;;;17.58;13.63;;;;;;;25.13;59.58;100162.27;153939;1093;103186;-74
2021/07/24 07:16:48;;;;;;;15.38;12.63;;;;;;;25.22;59.34;100166.25;154073;1101;103192;-74
2021/07/24 07:19:53;;;;;;;13.87;11.67;;;;;;;25.30;59.21;100161.44;153964;1101;103128;-75
2021/07/24 07:22:58;;;;;;;13.93;11.17;;;;;;;25.41;59.05;100174.16;153923;1101;103154;-76
2021/07/24 07:26:03;;;;;;;13.65;11.43;;;;;;;25.47;58.27;100168.48;153980;1101;103112;-74
2021/07/24 07:29:08;;;;;;;15.10;11.65;;;;;;;25.53;58.99;100166.65;153946;1101;103198;-75
2021/07/24 07:32:14;;;;;;;14.38;11.48;;;;;;;25.58;58.55;100163.99;154012;1101;103195;-73
2021/07/24 07:35:19;;;;;;;15.70;11.15;;;;;;;25.62;58.63;100169.78;154002;1093;103111;-74
2021/07/24 07:38:24;;;;;;;13.78;11.58;;;;;;;25.66;58.81;100174.46;154001;1101;103110;-73
2021/07/24 07:41:30;;;;;;;13.90;11.20;;;;;;;25.70;57.99;100169.31;154059;1094;103145;-74
2021/07/24 07:44:34;;;;;;;14.33;10.63;;;;;;;25.80;58.24;100176.80;154061;1093;103336;-73
2021/07/24 07:47:40;;;;;;;12.90;10.93;;;;;;;25.85;57.66;100177.69;153981;1101;103192;-75
2021/07/24 07:50:45;;;;;;;12.93;11.33;;;;;;;25.88;57.35;100172.80;154012;1094;103106;-75
2021/07/24 07:53:51;;;;;;;13.55;10.13;;;;;;;25.92;57.28;100176.69;154011;1093;103187;-74
2021/07/24 07:56:56;;;;;;;12.50;11.17;;;;;;;25.95;57.05;100195.33;154020;1101;103147;-73
2021/07/24 08:00:01;;;;;;;13.95;10.73;;;;;;;26.03;56.71;100187.47;153924;1101;103201;-74
2021/07/24 08:03:17;;;;;;;15.70;10.67;;;;;;;26.06;56.33;100188.89;153981;1093;103117;-74
2021/07/24 08:06:22;;;;;;;12.10;10.45;;;;;;;26.10;56.61;100184.55;153948;1101;103117;-73
2021/07/24 08:09:27;;;;;;;13.28;10.63;;;;;;;26.17;56.34;100184.33;153946;1101;103503;-74
2021/07/24 08:12:32;;;;;;;12.75;10.15;;;;;;;26.23;56.53;100180.55;153950;1101;103150;-74
2021/07/24 08:15:37;;;;;;;13.93;10.30;;;;;;;26.35;56.52;100174.91;154288;1093;103206;-76
2021/07/24 08:18:42;;;;;;;12.23;10.50;;;;;;;26.38;55.99;100182.62;154073;1101;103185;-74
2021/07/24 08:21:47;;;;;;;13.87;11.00;;;;;;;26.37;55.27;100183.72;154074;1093;103195;-74
2021/07/24 08:24:52;;;;;;;12.60;10.67;;;;;;;26.30;55.68;100185.83;153966;1093;103190;-74
2021/07/24 08:28:00;;;;;;;13.40;10.47;;;;;;;26.28;55.30;100182.53;153976;1094;103052;-74
2021/07/24 08:31:05;;;;;;;13.57;10.37;;;;;;;26.13;54.15;100178.55;154254;1101;103264;-76
2021/07/24 08:34:10;;;;;;;11.90;9.80;;;;;;;25.99;55.06;100180.88;154009;1101;103100;-75
2021/07/24 08:37:15;;;;;;;12.37;9.43;;;;;;;26.01;55.16;100183.36;154002;1101;103126;-75
2021/07/24 08:40:21;;;;;;;12.98;9.40;;;;;;;25.93;53.72;100187.38;153994;1101;103202;-77
2021/07/24 08:43:26;;;;;;;10.90;9.03;;;;;;;25.73;53.47;100181.63;154020;1093;103139;-77
2021/07/24 08:46:32;;;;;;;11.30;8.50;;;;;;;25.74;53.91;100181.38;154049;1094;103187;-77
2021/07/24 08:49:37;;;;;;;8.80;7.90;;;;;;;25.77;53.53;100182.77;154021;1093;103150;-78
2021/07/24 08:52:42;;;;;;;9.40;8.00;;;;;;;25.69;52.57;100181.31;153969;1101;103125;-78
2021/07/24 08:55:47;;;;;;;10.60;8.50;;;;;;;25.53;53.14;100183.05;153959;1101;103139;-77
2021/07/24 08:58:58;;;;;;;9.55;7.83;;;;;;;25.41;53.73;100174.97;153985;1093;103208;-76
2021/07/24 09:02:08;;;;;;;11.35;8.50;;;;;;;25.30;53.21;100173.19;153995;1101;103184;-76
2021/07/24 09:05:15;;;;;;;10.75;7.80;;;;;;;25.21;52.67;100170.05;153992;1101;103169;-74
2021/07/24 09:08:21;;;;;;;9.25;7.13;;;;;;;25.20;52.77;100179.30;154002;1101;103122;-74
2021/07/24 09:11:27;;;;;;;8.65;7.05;;;;;;;25.24;52.71;100174.20;154013;1101;103222;-74
2021/07/24 09:14:32;;;;;;;7.93;7.13;;;;;;;25.30;52.74;100167.72;154012;1094;103187;-75
2021/07/24 09:17:37;;;;;;;9.37;6.97;;;;;;;25.36;52.49;100177.63;153930;1101;103291;-74
2021/07/24 09:20:47;;;;;;;10.23;8.83;;;;;;;25.42;51.04;100182.11;153957;1101;103128;-74
2021/07/24 09:23:52;;;;;;;9.60;8.23;;;;;;;25.32;51.90;100173.75;153965;1101;103130;-74
2021/07/24 09:26:57;;;;;;;9.83;7.85;;;;;;;25.37;52.19;100178.48;153970;1094;103139;-74
2021/07/24 09:30:03;;;;;;;8.98;7.75;;;;;;;25.44;51.72;100173.63;153951;1101;103212;-74
2021/07/24 09:33:09;;;;;;;9.80;8.10;;;;;;;25.47;51.40;100168.48;153963;1101;103263;-74
2021/07/24 09:36:30;;;;;;;10.43;7.47;;;;;;;25.63;51.09;100165.95;154002;1101;103216;-75
2021/07/24 09:39:35;;;;;;;14.93;8.30;;;;;;;25.79;51.95;100169.67;153984;1093;103128;-75
2021/07/24 09:42:40;;;;;;;11.17;8.10;;;;;;;25.94;51.23;100166.32;153948;1101;103222;-75
2021/07/24 09:45:45;;;;;;;9.98;7.53;;;;;;;26.09;51.02;100157.45;153959;1093;103227;-73
2021/07/24 09:48:51;;;;;;;10.50;8.40;;;;;;;26.17;51.06;100155.06;153953;1101;103275;-74
2021/07/24 09:52:09;;;;;;;9.70;7.45;;;;;;;26.25;51.24;100154.61;154096;1101;103244;-74
2021/07/24 09:55:23;;;;;;;10.00;8.90;;;;;;;26.50;50.68;100144.95;153952;1101;103244;-75
2021/07/24 09:58:29;;;;;;;10.30;8.25;;;;;;;26.74;50.34;100142.71;153905;1101;103123;-74
2021/07/24 10:01:34;;;;;;;8.53;7.13;;;;;;;26.92;49.58;100138.70;153961;1101;103176;-74
2021/07/24 10:04:41;;;;;;;8.33;7.47;;;;;;;27.07;49.13;100139.91;153911;1101;103247;-74
2021/07/24 10:07:46;;;;;;;8.83;7.83;;;;;;;27.13;48.86;100142.39;154031;1101;103126;-75
2021/07/24 10:10:52;;;;;;;9.55;8.08;;;;;;;27.18;47.95;100138.88;153980;1093;103224;-75
2021/07/24 10:13:57;;;;;;;9.50;7.13;;;;;;;27.29;48.85;100135.13;153958;1093;103111;-74
2021/07/24 10:17:03;;;;;;;11.15;7.60;;;;;;;27.44;48.88;100137.08;153955;1101;103200;-75
2021/07/24 10:20:10;;;;;;;9.23;6.80;;;;;;;27.55;48.29;100137.95;153998;1093;103270;-75
2021/07/24 10:23:17;;;;;;;7.45;6.58;;;;;;;27.66;47.34;100147.86;153979;1101;103140;-74
2021/07/24 10:26:28;;;;;;;9.40;6.37;;;;;;;27.94;47.64;100138.34;153929;1093;103125;-75
2021/07/24 10:29:37;;;;;;;8.07;6.47;;;;;;;28.08;47.01;100133.18;153919;1101;103119;-74
2021/07/24 10:32:44;;;;;;;8.77;6.07;;;;;;;28.11;47.00;100135.36;153966;1101;103237;-75
2021/07/24 10:35:49;;;;;;;6.27;5.60;;;;;;;28.23;46.76;100123.30;153978;1100;103240;-74
2021/07/24 10:39:03;;;;;;;7.55;5.80;;;;;;;28.31;42.80;100120.84;153984;1101;103191;-74
2021/07/24 10:42:14;;;;;;;6.48;5.30;;;;;;;28.08;46.04;100115.88;153972;1101;103111;-74
2021/07/24 10:45:46;;;;;;;8.77;5.80;;;;;;;27.83;45.26;100117.48;153954;1101;103230;-74
2021/07/24 10:48:51;;;;;;;6.68;5.98;;;;;;;27.37;45.21;100120.91;153953;1101;103272;-74
2021/07/24 10:51:57;;;;;;;6.10;5.50;;;;;;;27.22;46.01;100120.81;154006;1101;103259;-74
2021/07/24 10:55:14;;;;;;;6.80;6.10;;;;;;;27.14;45.71;100113.11;154072;1101;103128;-74
2021/07/24 10:58:22;;;;;;;6.43;5.70;;;;;;;27.06;45.35;100111.70;153932;1093;103208;-75
2021/07/24 11:01:46;;;;;;;6.37;5.73;;;;;;;26.98;44.98;100110.30;153991;1101;103213;-75
2021/07/24 11:04:52;;;;;;;6.40;5.57;;;;;;;26.96;45.46;100117.11;153966;1101;103237;-75
2021/07/24 11:07:58;;;;;;;6.65;5.95;;;;;;;26.87;45.11;100110.47;153961;1101;103663;-74
2021/07/24 11:11:12;;;;;;;5.93;5.33;;;;;;;26.82;44.70;100100.33;153979;1101;103124;-74
2021/07/24 11:14:58;;;;;;;7.27;5.63;;;;;;;26.78;43.41;100104.69;153965;1101;103129;-75
2021/07/24 11:18:23;;;;;;;6.20;5.45;;;;;;;26.64;44.55;100105.15;153938;1101;103194;-74
2021/07/24 11:21:58;;;;;;;7.10;6.10;;;;;;;26.69;45.21;100106.27;154004;1093;103244;-74
2021/07/24 11:25:34;;;;;;;7.07;6.27;;;;;;;26.69;44.94;100106.27;154030;1101;103274;-74
2021/07/24 11:28:48;;;;;;;9.07;6.63;;;;;;;26.67;45.15;100102.97;154137;1095;103125;-78
2021/07/24 11:31:54;;;;;;;7.00;5.95;;;;;;;26.66;45.30;100106.78;153990;1101;103131;-81
2021/07/24 11:35:00;;;;;;;6.80;6.10;;;;;;;26.62;45.48;100109.25;154076;1093;103146;-78
2021/07/24 11:38:19;;;;;;;6.63;5.93;;;;;;;26.62;45.74;100107.33;154029;1093;103205;-79
2021/07/24 11:41:33;;;;;;;7.23;6.43;;;;;;;26.69;45.29;100117.22;153935;1093;103177;-80
2021/07/24 11:44:38;;;;;;;7.68;6.05;;;;;;;26.77;45.68;100109.34;154191;1094;103196;-81
2021/07/24 11:47:43;;;;;;;6.67;5.93;;;;;;;26.88;45.85;100115.69;154015;1101;103522;-76
2021/07/24 11:50:49;;;;;;;6.17;5.57;;;;;;;27.02;45.98;100110.55;153960;1101;103133;-76
2021/07/24 11:53:54;;;;;;;6.30;5.53;;;;;;;27.14;46.04;100099.41;154022;1096;103160;-76
2021/07/24 11:56:59;;;;;;;6.93;6.23;;;;;;;27.27;46.27;100101.66;153934;1101;103949;-79
2021/07/24 12:00:04;;;;;;;6.67;5.87;;;;;;;27.34;45.55;100098.69;154015;1101;103470;-76
2021/07/24 12:03:19;;;;;;;6.43;5.83;;;;;;;27.41;45.54;100102.83;153974;1101;103198;-76
2021/07/24 12:06:24;;;;;;;7.78;5.90;;;;;;;27.50;46.41;100100.38;153961;1101;103252;-76
2021/07/24 12:09:30;;;;;;;6.30;5.70;;;;;;;27.61;46.52;100102.05;154048;1094;103193;-75
2021/07/24 12:12:36;;;;;;;7.45;5.80;;;;;;;27.73;46.31;100090.84;154128;1101;103212;-75
2021/07/24 12:16:05;;;;;;;6.93;6.23;;;;;;;27.75;45.82;100085.94;154037;1101;103203;-78
2021/07/24 12:19:20;;;;;;;12.10;6.43;;;;;;;27.87;46.18;100088.42;153965;1096;103128;-74
2021/07/24 12:22:28;;;;;;;6.98;6.00;;;;;;;27.90;45.40;100089.81;153989;1096;103556;-72
2021/07/24 12:25:33;;;;;;;8.60;6.30;;;;;;;27.84;44.91;100093.63;153959;1101;103201;-72
2021/07/24 12:28:39;;;;;;;7.87;6.03;;;;;;;27.61;45.14;100091.09;153950;1096;103195;-72
2021/07/24 12:31:47;;;;;;;6.90;6.20;;;;;;;27.50;44.54;100085.86;153990;1101;103313;-72
2021/07/24 12:34:53;;;;;;;8.95;6.23;;;;;;;27.34;44.83;100088.55;154091;1096;103133;-72
2021/07/24 12:38:06;;;;;;;6.90;6.20;;;;;;;27.25;44.68;100092.08;153915;1095;103217;-72
2021/07/24 12:41:11;;;;;;;7.43;6.00;;;;;;;27.16;44.78;100089.02;154005;1101;103342;-72
2021/07/24 12:44:16;;;;;;;7.97;6.27;;;;;;;27.08;44.78;100084.02;153971;1101;103352;-72
2021/07/24 12:47:21;;;;;;;6.98;6.28;;;;;;;27.02;45.07;100091.39;154019;1095;103553;-72
2021/07/24 12:50:26;;;;;;;7.48;6.78;;;;;;;27.02;45.78;100083.17;154093;1101;103123;-73
2021/07/24 12:53:34;;;;;;;9.83;7.60;;;;;;;27.10;45.65;100087.32;153970;1101;103237;-74
2021/07/24 12:56:43;;;;;;;8.80;7.20;;;;;;;27.19;45.86;100088.46;153999;1101;103569;-76
2021/07/24 12:59:48;;;;;;;13.60;10.90;;;;;;;27.29;46.10;100088.55;153978;1101;103228;-75
2021/07/24 13:02:53;;;;;;;8.13;7.27;;;;;;;27.41;46.16;100085.58;154031;1101;103113;-75
2021/07/24 13:05:58;;;;;;;7.80;6.70;;;;;;;27.53;44.59;100088.89;153985;1101;103107;-78
2021/07/24 13:09:04;;;;;;;6.77;6.07;;;;;;;27.67;44.89;100083.70;153944;1101;103174;-73
2021/07/24 13:12:09;;;;;;;6.63;6.03;;;;;;;27.84;44.66;100088.95;154056;1101;103153;-73
2021/07/24 13:15:14;;;;;;;6.90;6.20;;;;;;;27.90;43.21;100087.08;153991;1101;103589;-74
2021/07/24 13:18:19;;;;;;;6.53;5.93;;;;;;;27.87;43.92;100082.09;153980;1093;103196;-75
2021/07/24 13:21:24;;;;;;;6.37;5.77;;;;;;;27.98;43.33;100083.78;153970;1101;103128;-73
2021/07/24 13:24:31;;;;;;;6.90;6.18;;;;;;;28.13;43.48;100078.30;153933;1101;103196;-74
2021/07/24 13:30:59;;;;;;;7.60;6.50;;;;;;;28.18;42.35;100082.98;153984;1101;103281;-76
2021/07/24 13:34:05;;;;;;;7.23;6.43;;;;;;;28.08;42.72;100081.06;153961;1101;103131;-74
2021/07/24 13:37:10;;;;;;;9.75;6.55;;;;;;;28.14;42.54;100079.15;153986;1101;103243;-69
2021/07/24 13:40:16;;;;;;;7.33;6.63;;;;;;;28.15;42.25;100078.84;153989;1101;103199;-71
2021/07/24 13:43:21;;;;;;;8.37;6.30;;;;;;;28.15;43.17;100075.29;153977;1101;103165;-73
2021/07/24 13:46:26;;;;;;;7.40;6.10;;;;;;;28.18;42.39;100070.08;153975;1101;103285;-73
2021/07/24 13:49:35;;;;;;;8.17;6.50;;;;;;;28.25;42.71;100069.79;153967;1101;103224;-73
2021/07/24 13:52:41;;;;;;;24.65;21.25;;;;;;;28.29;43.91;100070.06;153955;1093;103123;-73
2021/07/24 13:55:46;;;;;;;13.57;12.17;;;;;;;28.28;42.83;100072.00;153939;1093;103166;-73
2021/07/24 13:58:51;;;;;;;9.85;8.20;;;;;;;28.29;43.02;100070.91;153955;1101;103243;-73
2021/07/24 14:01:56;;;;;;;11.18;7.13;;;;;;;28.28;42.85;100063.77;153944;1094;103178;-73
2021/07/24 14:05:01;;;;;;;7.93;7.10;;;;;;;28.30;43.02;100066.23;154071;1101;103495;-73
2021/07/24 14:08:07;;;;;;;7.50;6.50;;;;;;;28.35;42.70;100071.70;153961;1093;103144;-74